Time;durP1;ratioP1;P1;durP2;ratioP2;P2;SDS_P1;SDS_P2;PMS_P1;PMS_P2;Temp;Humidity;BMP_temperature;BMP_pressure;BME280_temperature;BME280_humidity;BME280_pressure;Samples;Min_cycle;Max_cycle;Signal;HPM_P1;HPM_P2
2023/03/02 00:01:40;;;;;;;;;;;-0.20;99.90;;;-1.07;100.00;97863.78;4974732;28;1442;-81
2023/03/02 00:04:12;;;;;;;;;;;-0.30;99.90;;;-1.03;100.00;97857.84;4969805;28;1895;-81
2023/03/02 00:06:40;;;;;;;;;;;-0.20;99.90;;;-0.90;100.00;97846.03;4972894;28;1506;-81
2023/03/02 00:09:07;;;;;;;;;;;-0.20;99.90;;;-0.88;100.00;97845.22;4973015;28;1490;-81
2023/03/02 00:11:39;;;;;;;;;;;-0.10;99.90;;;-0.87;100.00;97846.06;4975861;28;1411;-79
2023/03/02 00:14:07;;;;;;;;;;;-0.10;99.90;;;-0.86;100.00;97840.97;4972591;28;1682;-79
2023/03/02 00:16:34;;;;;;;;;;;-0.10;99.90;;;-0.82;100.00;97838.44;4969479;28;1407;-79
2023/03/02 00:19:01;;;;;;;;;;;-0.10;99.90;;;-0.77;100.00;97830.00;4972729;28;1457;-79
2023/03/02 00:21:28;;;;;;;;;;;0.00;99.90;;;-0.71;100.00;97834.28;4971598;28;1395;-79
2023/03/02 00:23:55;;;;;;;;;;;0.10;99.90;;;-0.65;100.00;97831.78;4961324;28;2205;-79
2023/03/02 00:26:22;;;;;;;;;;;0.10;99.90;;;-0.71;100.00;97830.06;4976656;28;1379;-79
2023/03/02 00:28:50;;;;;;;;;;;0.10;99.90;;;-0.69;100.00;97833.44;4975724;28;2675;-79
2023/03/02 00:31:17;;;;;;;;;;;0.10;99.90;;;-0.71;100.00;97829.16;4958242;28;1469;-78
2023/03/02 00:33:44;;;;;;;;;;;0.10;99.90;;;-0.72;100.00;97830.03;4973660;28;1463;-78
2023/03/02 00:36:35;;;;;;;;;;;0.10;99.90;;;-0.65;100.00;97835.16;4974044;28;1609;-79
2023/03/02 00:39:03;;;;;;;;;;;0.10;99.90;;;-0.65;100.00;97829.22;4971723;28;1417;-80
2023/03/02 00:41:31;;;;;;;;;;;0.10;99.90;;;-0.72;100.00;97828.31;4979055;28;1429;-79
2023/03/02 00:43:58;;;;;;;;;;;0.10;99.90;;;-0.72;100.00;97832.59;4975669;28;1950;-80
2023/03/02 00:46:27;;;;;;;;;;;0.10;99.90;;;-0.73;100.00;97831.72;4973540;28;1698;-79
2023/03/02 00:48:54;;;;;;;;;;;0.00;99.90;;;-0.74;100.00;97835.09;4971378;28;1563;-79
2023/03/02 00:51:21;;;;;;;;;;;0.00;99.90;;;-0.85;100.00;97829.94;4975007;28;1428;-79
2023/03/02 00:53:48;;;;;;;;;;;0.00;99.90;;;-0.85;100.00;97831.63;4975332;28;1379;-79
2023/03/02 00:56:15;;;;;;;;;;;0.00;99.90;;;-0.86;100.00;97832.50;4972762;28;1408;-79
2023/03/02 00:58:43;;;;;;;;;;;0.00;99.90;;;-0.87;100.00;97834.19;4976375;28;1551;-78
2023/03/02 01:01:12;;;;;;;;;;;0.00;99.90;;;-0.85;100.00;97836.72;4973844;28;1507;-79
2023/03/02 01:03:39;;;;;;;;;;;-0.10;99.90;;;-0.93;100.00;97831.59;4974471;28;1462;-79
2023/03/02 01:06:13;;;;;;;;;;;-0.10;99.90;;;-0.94;100.00;97822.22;4956245;28;1891;-80
2023/03/02 01:08:40;;;;;;;;;;;-0.10;99.90;;;-0.97;100.00;97823.91;4954634;28;1434;-80
2023/03/02 01:11:15;;;;;;;;;;;-0.10;99.90;;;-1.01;100.00;97817.09;4971361;28;1598;-80
2023/03/02 01:13:43;;;;;;;;;;;-0.20;99.90;;;-1.02;100.00;97821.34;4969208;28;1603;-80
2023/03/02 01:16:13;;;;;;;;;;;-0.20;99.90;;;-0.97;100.00;97826.47;4970126;28;1677;-80
2023/03/02 01:18:40;;;;;;;;;;;-0.20;99.90;;;-1.01;100.00;97820.47;4971154;28;1708;-79
2023/03/02 01:21:10;;;;;;;;;;;-0.20;99.90;;;-1.03;100.00;97813.66;4951336;28;1390;-80
2023/03/02 01:23:37;;;;;;;;;;;-0.20;99.90;;;-1.11;100.00;97811.94;4963300;28;1424;-80
2023/03/02 01:26:04;;;;;;;;;;;-0.20;99.90;;;-1.10;100.00;97808.53;4962393;28;1987;-79
2023/03/02 01:28:32;;;;;;;;;;;-0.30;99.90;;;-1.14;100.00;97803.41;4967172;28;1414;-79
2023/03/02 01:31:03;;;;;;;;;;;-0.30;99.90;;;-1.16;100.00;97795.78;4963004;28;1414;-79
2023/03/02 01:33:31;;;;;;;;;;;-0.30;99.90;;;-1.18;100.00;97801.69;4966000;28;1371;-79
2023/03/02 01:35:58;;;;;;;;;;;-0.40;99.90;;;-1.22;100.00;97795.72;4967249;28;1425;-81
2023/03/02 01:38:26;;;;;;;;;;;-0.40;99.90;;;-1.24;100.00;97791.44;4968173;28;1663;-79
2023/03/02 01:40:54;;;;;;;;;;;-0.40;99.90;;;-1.28;100.00;97785.47;4966664;28;1398;-79
2023/03/02 01:43:22;;;;;;;;;;;-0.40;99.90;;;-1.28;100.00;97781.25;4966512;28;1402;-80
2023/03/02 01:45:52;;;;;;;;;;;-0.40;99.90;;;-1.28;100.00;97773.63;4952501;28;1915;-79
2023/03/02 01:48:27;;;;;;;;;;;-0.40;99.90;;;-1.30;100.00;97777.84;4966678;28;1408;-80
2023/03/02 01:51:01;;;;;;;;;;;-0.50;99.90;;;-1.24;100.00;97773.63;4964407;28;1634;-80
2023/03/02 01:53:31;;;;;;;;;;;-0.50;99.90;;;-1.33;100.00;97772.69;4964430;28;1893;-80
2023/03/02 01:55:59;;;;;;;;;;;-0.50;99.90;;;-1.34;100.00;97772.72;4979943;28;1377;-81
2023/03/02 01:58:27;;;;;;;;;;;-0.50;99.90;;;-1.34;100.00;97775.25;4965664;28;1545;-80
2023/03/02 02:00:55;;;;;;;;;;;-0.50;99.90;;;-1.35;100.00;97773.53;4963435;28;1438;-79
2023/03/02 02:03:28;;;;;;;;;;;-0.60;99.90;;;-1.38;100.00;97766.72;4965536;28;1410;-79
2023/03/02 02:06:19;;;;;;;;;;;-0.60;99.90;;;-1.38;100.00;97771.81;4967906;28;1984;-79
2023/03/02 02:08:47;;;;;;;;;;;-0.60;99.90;;;-1.41;100.00;97768.41;4963398;28;1426;-80
2023/03/02 02:11:15;;;;;;;;;;;-0.60;99.90;;;-1.50;100.00;97775.13;4950321;28;1455;-79
2023/03/02 02:13:42;;;;;;;;;;;-0.60;99.90;;;-1.53;100.00;97772.56;4953785;28;1428;-80
2023/03/02 02:16:09;;;;;;;;;;;-0.70;99.90;;;-1.55;100.00;97775.91;4952164;28;1646;-80
2023/03/02 02:18:41;;;;;;;;;;;-0.70;99.90;;;-1.59;100.00;97772.50;4964930;28;1460;-80
2023/03/02 02:21:08;;;;;;;;;;;-0.70;99.90;;;-1.57;100.00;97772.53;4965155;28;1560;-80
2023/03/02 02:23:54;;;;;;;;;;;-0.70;99.90;;;-1.54;100.00;97772.53;4977129;28;1490;-80
2023/03/02 02:26:28;;;;;;;;;;;-0.70;99.90;;;-1.57;100.00;97765.75;4964102;28;1899;-79
2023/03/02 02:29:01;;;;;;;;;;;-0.70;99.90;;;-1.39;100.00;97765.03;4967851;28;1401;-79
2023/03/02 02:31:34;;;;;;;;;;;-0.70;99.90;;;-1.38;100.00;97766.72;4965007;28;1610;-80
2023/03/02 02:34:12;;;;;;;;;;;-0.60;99.90;;;-1.47;100.00;97759.88;4964731;28;1733;-80
2023/03/02 02:36:41;;;;;;;;;;;-0.60;99.90;;;-1.37;100.00;97765.03;4945104;28;1424;-80
2023/03/02 02:39:15;;;;;;;;;;;-0.60;99.90;;;-1.38;100.00;97758.25;4949137;28;1527;-79
2023/03/02 02:41:45;;;;;;;;;;;-0.60;99.90;;;-1.39;100.00;97757.41;4964951;28;1497;-80
2023/03/02 02:44:14;;;;;;;;;;;-0.60;99.90;;;-1.42;100.00;97764.16;4946952;28;1400;-79
2023/03/02 02:46:43;;;;;;;;;;;-0.60;99.90;;;-1.40;100.00;97753.13;4971021;28;1976;-79
2023/03/02 02:49:34;;;;;;;;;;;-0.60;99.90;;;-1.50;100.00;97756.47;4974126;28;1750;-80
2023/03/02 02:52:03;;;;;;;;;;;-0.60;99.90;;;-1.44;100.00;97751.41;4958408;28;1707;-80
2023/03/02 02:54:32;;;;;;;;;;;-0.70;99.90;;;-1.45;100.00;97753.94;4982804;28;1503;-79
2023/03/02 02:57:00;;;;;;;;;;;-0.60;99.90;;;-1.43;100.00;97752.28;4973774;28;1405;-80
2023/03/02 02:59:31;;;;;;;;;;;-0.60;99.90;;;-1.51;100.00;97755.59;4958339;28;1689;-79
2023/03/02 03:01:58;;;;;;;;;;;-0.70;99.90;;;-1.58;100.00;97750.44;4974717;28;1576;-81
2023/03/02 03:04:29;;;;;;;;;;;-0.70;99.90;;;-1.54;100.00;97758.13;4963430;28;1910;-79
2023/03/02 03:07:02;;;;;;;;;;;-0.70;99.90;;;-1.56;100.00;97749.59;4970133;28;1365;-79
2023/03/02 03:09:30;;;;;;;;;;;-0.80;99.90;;;-1.59;100.00;97751.28;4965130;28;1551;-79
2023/03/02 03:12:02;;;;;;;;;;;-0.80;99.90;;;-1.66;100.00;97752.94;4965313;28;1491;-79
2023/03/02 03:14:33;;;;;;;;;;;-0.80;99.90;;;-1.67;100.00;97747.81;4970789;28;1414;-80
2023/03/02 03:17:01;;;;;;;;;;;-0.90;99.90;;;-1.75;100.00;97753.69;4967414;28;1425;-80
2023/03/02 03:19:30;;;;;;;;;;;-0.90;99.90;;;-1.81;100.00;97751.09;4966954;28;1647;-80
2023/03/02 03:22:00;;;;;;;;;;;-1.00;99.90;;;-1.83;100.00;97754.47;4973023;28;1419;-81
2023/03/02 03:24:30;;;;;;;;;;;-1.00;99.90;;;-1.85;100.00;97754.44;4967567;28;1646;-80
2023/03/02 03:26:57;;;;;;;;;;;-1.00;99.90;;;-1.80;100.00;97755.34;4966105;28;1438;-80
2023/03/02 03:29:29;;;;;;;;;;;-1.00;99.90;;;-1.92;100.00;97752.69;4970780;28;1560;-81
2023/03/02 03:31:57;;;;;;;;;;;-1.00;99.90;;;-1.96;100.00;97753.47;4964133;28;1565;-79
2023/03/02 03:34:24;;;;;;;;;;;-1.00;99.90;;;-1.98;100.00;97753.50;4968432;28;1679;-79
2023/03/02 03:36:52;;;;;;;;;;;-1.10;99.90;;;-2.00;100.00;97752.63;4958119;28;1382;-79
2023/03/02 03:39:20;;;;;;;;;;;-1.10;99.90;;;-1.95;100.00;97760.28;4968688;28;1585;-79
2023/03/02 03:41:47;;;;;;;;;;;-1.10;99.90;;;-1.99;100.00;97751.78;4969851;28;1394;-78
2023/03/02 03:44:14;;;;;;;;;;;-1.20;99.90;;;-1.97;100.00;97751.78;4954009;28;1422;-79
2023/03/02 03:46:41;;;;;;;;;;;-1.10;99.90;;;-2.02;100.00;97754.28;4969372;28;1993;-80
2023/03/02 03:49:08;;;;;;;;;;;-1.20;99.90;;;-2.05;100.00;97758.47;4963774;28;1701;-79
2023/03/02 03:51:35;;;;;;;;;;;-1.20;99.90;;;-2.13;100.00;97766.88;4964935;28;1598;-79
2023/03/02 03:54:04;;;;;;;;;;;-1.30;99.90;;;-2.14;100.00;97760.13;4965196;28;1368;-80
2023/03/02 03:56:38;;;;;;;;;;;-1.30;99.90;;;-2.25;100.00;97758.28;4966034;28;1380;-79
2023/03/02 03:59:08;;;;;;;;;;;-1.30;99.90;;;-2.35;100.00;97758.19;4964443;28;1433;-79
2023/03/02 04:01:41;;;;;;;;;;;-1.40;99.90;;;-2.31;100.00;97765.00;4957376;28;1558;-79
2023/03/02 04:04:18;;;;;;;;;;;-1.40;99.90;;;-2.30;100.00;97763.34;4970128;28;1466;-80
2023/03/02 04:06:45;;;;;;;;;;;-1.40;99.90;;;-2.33;100.00;97765.81;4952968;28;1954;-79
2023/03/02 04:09:16;;;;;;;;;;;-1.50;99.90;;;-2.43;100.00;97762.31;4967225;28;1464;-79
2023/03/02 04:11:45;;;;;;;;;;;-1.50;99.90;;;-2.46;100.00;97767.38;4969650;28;1390;-78
2023/03/02 04:14:13;;;;;;;;;;;-1.50;99.90;;;-2.43;100.00;97764.88;4968663;28;1410;-79
2023/03/02 04:16:41;;;;;;;;;;;-1.60;99.90;;;-2.41;100.00;97763.19;4967678;28;1961;-79
2023/03/02 04:19:08;;;;;;;;;;;-1.50;99.90;;;-2.43;100.00;97764.03;4973863;28;1451;-79
2023/03/02 04:21:57;;;;;;;;;;;-1.50;99.90;;;-2.50;100.00;97767.31;4967523;28;1626;-79
2023/03/02 04:24:24;;;;;;;;;;;-1.60;99.90;;;-2.53;100.00;97773.22;4968498;28;1431;-79
2023/03/02 04:26:51;;;;;;;;;;;-1.60;99.90;;;-2.42;100.00;97766.56;4968995;28;1995;-78
2023/03/02 04:29:18;;;;;;;;;;;-1.60;99.90;;;-2.31;100.00;97774.31;4972171;28;1623;-79
2023/03/02 04:31:47;;;;;;;;;;;-1.50;99.90;;;-2.28;100.00;97769.28;4971076;28;1643;-79
2023/03/02 04:34:14;;;;;;;;;;;-1.50;99.90;;;-2.34;100.00;97764.97;4954186;28;1588;-79
2023/03/02 04:36:42;;;;;;;;;;;-1.50;99.90;;;-2.31;100.00;97765.00;4973921;28;1395;-79
2023/03/02 04:39:09;;;;;;;;;;;-1.40;99.90;;;-2.25;100.00;97760.84;4971692;28;1535;-79
2023/03/02 04:41:37;;;;;;;;;;;-1.50;99.90;;;-2.28;100.00;97759.13;4968736;28;1403;-80
2023/03/02 04:44:04;;;;;;;;;;;-1.50;99.90;;;-2.23;100.00;97754.94;4959800;28;1530;-80
2023/03/02 04:46:33;;;;;;;;;;;-1.40;99.90;;;-2.20;100.00;97757.50;4969033;28;1993;-79
2023/03/02 04:49:00;;;;;;;;;;;-1.40;99.90;;;-2.01;100.00;97758.53;4953227;28;1653;-79
2023/03/02 04:51:30;;;;;;;;;;;-1.30;99.90;;;-2.05;100.00;97751.72;4952284;28;1547;-79
2023/03/02 04:54:00;;;;;;;;;;;-1.20;99.90;;;-1.94;100.00;97755.22;4967892;28;1398;-79
2023/03/02 04:56:28;;;;;;;;;;;-1.20;99.90;;;-1.90;100.00;97749.31;4970603;28;1591;-79
2023/03/02 04:58:56;;;;;;;;;;;-1.10;99.90;;;-2.00;100.00;97752.63;4968916;28;1413;-79
2023/03/02 05:01:24;;;;;;;;;;;-1.10;99.90;;;-1.85;100.00;97756.13;4972747;28;1414;-79
2023/03/02 05:03:51;;;;;;;;;;;-1.10;99.90;;;-1.79;100.00;97757.06;4969304;28;1365;-79
2023/03/02 05:06:20;;;;;;;;;;;-1.00;99.90;;;-1.80;100.00;97745.19;4975845;28;1962;-79
2023/03/02 05:08:47;;;;;;;;;;;-1.00;99.90;;;-1.82;100.00;97749.41;4966577;28;1467;-79
2023/03/02 05:11:20;;;;;;;;;;;-1.00;99.90;;;-1.93;100.00;97743.34;4973358;28;1516;-79
2023/03/02 05:13:54;;;;;;;;;;;-1.00;99.90;;;-1.84;100.00;97745.13;4956137;28;1436;-79
2023/03/02 05:16:22;;;;;;;;;;;-1.00;99.90;;;-1.77;100.00;97755.38;4963297;28;1391;-78
2023/03/02 05:18:49;;;;;;;;;;;-1.00;99.90;;;-1.94;100.00;97747.59;4961679;28;1485;-79
2023/03/02 05:21:17;;;;;;;;;;;-1.10;99.90;;;-1.83;100.00;97742.59;4973990;28;1385;-79
2023/03/02 05:23:44;;;;;;;;;;;-1.10;99.90;;;-1.82;100.00;97749.41;4972712;28;1656;-79
2023/03/02 05:26:11;;;;;;;;;;;-1.00;99.90;;;-1.87;100.00;97747.63;4969652;28;1914;-79
2023/03/02 05:28:39;;;;;;;;;;;-1.10;99.90;;;-1.85;100.00;97743.41;4965088;28;1496;-79
2023/03/02 05:31:07;;;;;;;;;;;-1.00;99.90;;;-1.81;100.00;97743.47;4967337;28;1544;-79
2023/03/02 05:33:35;;;;;;;;;;;-1.00;99.90;;;-1.78;100.00;97750.25;4972314;28;1485;-79
2023/03/02 05:36:02;;;;;;;;;;;-1.00;99.90;;;-1.79;100.00;97757.06;4956802;28;1388;-79
2023/03/02 05:38:30;;;;;;;;;;;-0.90;99.90;;;-1.79;100.00;97740.94;4968315;28;1786;-80
2023/03/02 05:40:57;;;;;;;;;;;-1.00;99.90;;;-1.82;100.00;97746.00;4969582;28;1820;-78
2023/03/02 05:43:24;;;;;;;;;;;-0.90;99.90;;;-1.78;100.00;97740.97;4966233;28;1588;-80
2023/03/02 05:45:51;;;;;;;;;;;-1.00;99.90;;;-1.90;100.00;97741.69;4970988;28;1899;-80
2023/03/02 05:48:18;;;;;;;;;;;-1.00;99.90;;;-1.82;100.00;97741.78;4972935;28;1605;-79
2023/03/02 05:50:45;;;;;;;;;;;-1.00;99.90;;;-1.76;100.00;97743.50;4967961;28;1512;-79
2023/03/02 05:53:13;;;;;;;;;;;-1.00;99.90;;;-1.75;100.00;97750.31;4966067;28;1982;-79
2023/03/02 05:55:43;;;;;;;;;;;-1.00;99.90;;;-1.72;100.00;97743.53;4969678;28;1774;-79
2023/03/02 05:58:16;;;;;;;;;;;-0.90;99.90;;;-1.77;100.00;97747.75;4971778;28;1482;-78
2023/03/02 06:00:44;;;;;;;;;;;-0.90;99.90;;;-1.78;100.00;97747.72;4953819;28;1421;-79
2023/03/02 06:03:11;;;;;;;;;;;-0.90;99.90;;;-1.72;100.00;97753.72;4971538;28;1810;-79
2023/03/02 06:05:38;;;;;;;;;;;-0.90;99.90;;;-1.69;100.00;97757.97;4964819;28;1910;-79
2023/03/02 06:08:05;;;;;;;;;;;-0.90;99.90;;;-1.65;100.00;97754.63;4960092;28;1012;-79
2023/03/02 06:10:33;;;;;;;;;;;-0.90;99.90;;;-1.67;100.00;97752.91;4970048;28;1368;-79
2023/03/02 06:13:01;;;;;;;;;;;-0.90;99.90;;;-1.71;100.00;97750.34;4969148;28;1237;-79
2023/03/02 06:15:30;;;;;;;;;;;-0.80;99.90;;;-1.67;100.00;97751.22;4972459;28;1338;-79
2023/03/02 06:17:57;;;;;;;;;;;-0.80;99.90;;;-1.61;100.00;97751.28;4966543;28;1409;-79
2023/03/02 06:20:25;;;;;;;;;;;-0.90;99.90;;;-1.52;100.00;97755.59;4960169;28;1452;-79
2023/03/02 06:22:51;;;;;;;;;;;-0.80;99.90;;;-1.57;100.00;97762.34;4958913;28;1119;-79
2023/03/02 06:25:21;;;;;;;;;;;-0.70;99.90;;;-1.58;100.00;97768.25;4972487;28;1185;-79
2023/03/02 06:27:52;;;;;;;;;;;-0.70;99.90;;;-1.48;100.00;97768.34;4968666;28;1296;-79
2023/03/02 06:30:23;;;;;;;;;;;-0.70;99.90;;;-1.50;100.00;97764.94;4969047;28;1293;-79
2023/03/02 06:32:50;;;;;;;;;;;-0.70;99.90;;;-1.53;100.00;97770.03;4978999;28;991;-79
2023/03/02 06:35:18;;;;;;;;;;;-0.70;99.90;;;-1.50;100.00;97764.94;4964075;28;1040;-79
2023/03/02 06:37:45;;;;;;;;;;;-0.70;99.90;;;-1.47;100.00;97764.97;4979742;28;1474;-79
2023/03/02 06:40:12;;;;;;;;;;;-0.60;99.90;;;-1.45;100.00;97764.97;4974040;28;1292;-79
2023/03/02 06:42:41;;;;;;;;;;;-0.60;99.90;;;-1.42;100.00;97761.59;4975529;28;1414;-79
2023/03/02 06:45:09;;;;;;;;;;;-0.60;99.90;;;-1.39;100.00;97761.63;4961013;28;970;-80
2023/03/02 06:47:38;;;;;;;;;;;-0.50;99.90;;;-1.34;100.00;97765.91;4958882;28;1962;-79
2023/03/02 06:50:08;;;;;;;;;;;-0.50;99.90;;;-1.29;100.00;97765.94;4976710;28;2051;-79
2023/03/02 06:52:35;;;;;;;;;;;-0.40;99.90;;;-1.33;100.00;97759.97;4973483;28;1445;-79
2023/03/02 06:55:03;;;;;;;;;;;-0.40;99.90;;;-1.24;100.00;97760.88;4971680;28;1391;-78
2023/03/02 06:57:32;;;;;;;;;;;-0.40;99.90;;;-1.19;100.00;97756.69;4969876;28;1377;-79
2023/03/02 07:00:05;;;;;;;;;;;-0.40;99.90;;;-1.20;100.00;97754.97;4969275;28;1867;-79
2023/03/02 07:02:36;;;;;;;;;;;-0.30;99.90;;;-1.17;100.00;97749.91;4975468;28;1103;-79
2023/03/02 07:05:03;;;;;;;;;;;-0.30;99.90;;;-1.11;100.00;97763.53;4940693;28;1107;-79
2023/03/02 07:07:31;;;;;;;;;;;-0.20;99.90;;;-1.05;100.00;97760.16;4969577;28;1962;-79
2023/03/02 07:10:01;;;;;;;;;;;-0.20;99.90;;;-0.95;100.00;97764.47;4973038;28;1273;-79
2023/03/02 07:12:28;;;;;;;;;;;-0.10;99.90;;;-1.00;100.00;97761.06;4961583;28;1257;-78
2023/03/02 07:14:55;;;;;;;;;;;0.00;99.90;;;-0.92;100.00;97766.19;4973901;28;1081;-79
2023/03/02 07:17:22;;;;;;;;;;;0.00;99.90;;;-0.92;100.00;97767.03;4987693;28;994;-79
2023/03/02 07:19:48;;;;;;;;;;;0.00;99.90;;;-0.94;100.00;97765.31;4962599;28;1341;-80
2023/03/02 07:22:15;;;;;;;;;;;0.00;99.90;;;-0.88;100.00;97771.31;4975601;28;1364;-79
2023/03/02 07:24:44;;;;;;;;;;;0.10;99.90;;;-0.90;100.00;97772.16;4966727;28;1052;-80
2023/03/02 07:27:11;;;;;;;;;;;0.10;99.90;;;-0.85;100.00;97771.31;4973603;28;1912;-79
2023/03/02 07:29:40;;;;;;;;;;;0.10;99.90;;;-0.87;100.00;97767.94;4962805;28;1651;-79
2023/03/02 07:32:07;;;;;;;;;;;0.10;99.90;;;-0.83;100.00;97763.69;4975430;28;1215;-80
2023/03/02 07:34:38;;;;;;;;;;;0.10;99.90;;;-0.77;100.00;97766.28;4977756;28;1253;-79
2023/03/02 07:37:05;;;;;;;;;;;0.10;99.90;;;-0.71;100.00;97771.41;4972908;28;1035;-79
2023/03/02 07:39:33;;;;;;;;;;;0.20;99.90;;;-0.71;100.00;97776.53;4977207;28;1418;-80
2023/03/02 07:42:01;;;;;;;;;;;0.30;99.90;;;-0.73;100.00;97780.75;4972640;28;1171;-80
2023/03/02 07:44:29;;;;;;;;;;;0.20;99.90;;;-0.66;100.00;97777.38;4963923;28;1487;-80
2023/03/02 07:46:58;;;;;;;;;;;0.20;99.90;;;-0.70;100.00;97775.66;4973430;28;1914;-79
2023/03/02 07:49:26;;;;;;;;;;;0.30;99.90;;;-0.60;100.00;97778.25;4972852;28;1284;-79
2023/03/02 07:51:53;;;;;;;;;;;0.30;99.90;;;-0.55;100.00;97786.78;4973732;28;1214;-79
2023/03/02 07:54:20;;;;;;;;;;;0.30;99.90;;;-0.55;100.00;97772.31;4972718;28;1406;-79
2023/03/02 07:56:49;;;;;;;;;;;0.40;99.90;;;-0.55;100.00;97781.66;4974988;28;1668;-80
2023/03/02 07:59:16;;;;;;;;;;;0.50;99.90;;;-0.46;100.00;97777.50;4971060;28;1559;-80
2023/03/02 08:01:43;;;;;;;;;;;0.50;99.90;;;-0.35;100.00;97784.31;4970813;28;1475;-79
2023/03/02 08:04:10;;;;;;;;;;;0.50;99.90;;;-0.31;100.00;97784.34;4955183;28;1593;-79
2023/03/02 08:06:37;;;;;;;;;;;0.60;99.90;;;-0.16;100.00;97786.09;4959557;28;1911;-80
2023/03/02 08:09:07;;;;;;;;;;;0.70;99.90;;;-0.13;100.00;97787.81;4985473;28;1618;-81
2023/03/02 08:11:34;;;;;;;;;;;0.80;99.90;;;-0.18;100.00;97782.69;4977217;28;974;-80
2023/03/02 08:14:01;;;;;;;;;;;0.80;99.90;;;-0.18;100.00;97790.34;4971324;28;1278;-79
2023/03/02 08:16:29;;;;;;;;;;;0.80;99.90;;;-0.17;100.00;97793.75;4978387;28;1528;-80
2023/03/02 08:18:56;;;;;;;;;;;0.90;99.90;;;-0.09;100.00;97784.38;4967566;28;1005;-79
2023/03/02 08:21:26;;;;;;;;;;;0.90;99.90;;;-0.07;100.00;97786.13;4957138;28;1207;-81
2023/03/02 08:23:54;;;;;;;;;;;0.90;99.90;;;-0.01;100.00;97778.47;4971987;28;1124;-80
2023/03/02 08:26:22;;;;;;;;;;;1.00;99.90;;;-0.05;100.00;97786.13;4974243;28;1948;-81
2023/03/02 08:28:49;;;;;;;;;;;1.00;99.90;;;0.06;100.00;97784.44;4972449;28;1576;-81
2023/03/02 08:31:18;;;;;;;;;;;1.00;99.90;;;0.03;100.00;97788.72;4974401;28;1567;-81
2023/03/02 08:33:46;;;;;;;;;;;1.10;99.90;;;0.05;100.00;97784.47;4978732;28;1507;-80
2023/03/02 08:36:16;;;;;;;;;;;1.00;99.90;;;0.14;100.00;97792.13;4974746;28;1545;-80
2023/03/02 08:38:43;;;;;;;;;;;1.20;99.90;;;0.30;100.00;97796.41;4955495;28;1413;-81
2023/03/02 08:41:17;;;;;;;;;;;1.30;99.90;;;0.47;100.00;97793.03;4972328;28;1472;-81
2023/03/02 08:43:45;;;;;;;;;;;1.40;99.90;;;0.71;100.00;97787.94;4973791;28;1645;-81
2023/03/02 08:46:16;;;;;;;;;;;1.60;99.90;;;0.81;100.00;97781.97;4974090;28;1985;-80
2023/03/02 08:48:43;;;;;;;;;;;1.80;99.90;;;1.04;100.00;97786.19;4959605;28;1381;-81
2023/03/02 08:51:16;;;;;;;;;;;1.90;99.90;;;1.25;100.00;97780.19;4970861;28;1423;-81
2023/03/02 08:53:45;;;;;;;;;;;2.10;99.90;;;1.32;100.00;97774.19;4973456;28;1733;-81
2023/03/02 08:56:21;;;;;;;;;;;2.30;99.90;;;1.23;100.00;97785.31;4973366;28;1483;-81
2023/03/02 08:58:49;;;;;;;;;;;2.30;99.90;;;1.39;100.00;97769.91;4971101;28;1440;-81
2023/03/02 09:01:19;;;;;;;;;;;2.50;99.90;;;1.51;100.00;97779.28;4959763;28;1475;-81
2023/03/02 09:03:46;;;;;;;;;;;2.80;99.90;;;1.67;100.00;97774.09;4973160;28;1587;-81
2023/03/02 09:06:14;;;;;;;;;;;2.90;99.90;;;1.98;100.00;97773.09;4976063;28;1899;-79
2023/03/02 09:08:41;;;;;;;;;;;3.10;99.90;;;1.94;100.00;97763.72;4972061;28;1392;-80
2023/03/02 09:11:08;;;;;;;;;;;3.30;99.90;;;2.25;100.00;97769.53;4969623;28;1466;-80
2023/03/02 09:13:36;;;;;;;;;;;3.20;99.90;;;2.20;100.00;97759.31;4957484;28;1660;-79
2023/03/02 09:16:07;;;;;;;;;;;3.10;99.90;;;2.08;100.00;97764.50;4985605;28;1436;-80
2023/03/02 09:18:35;;;;;;;;;;;3.00;99.90;;;2.61;100.00;97758.16;4975008;28;1862;-79
2023/03/02 09:21:02;;;;;;;;;;;3.10;99.90;;;2.64;100.00;97764.97;4978096;28;1401;-79
2023/03/02 09:23:30;;;;;;;;;;;3.30;99.90;;;2.73;100.00;97758.03;4973018;28;1441;-80
2023/03/02 09:25:58;;;;;;;;;;;3.50;99.90;;;2.78;100.00;97757.16;4974834;28;1384;-80
2023/03/02 09:28:27;;;;;;;;;;;3.50;99.90;;;2.86;100.00;97758.81;4971769;28;1903;-80
2023/03/02 09:30:59;;;;;;;;;;;3.60;99.90;;;2.65;100.00;97759.00;4974058;28;1444;-80
2023/03/02 09:33:27;;;;;;;;;;;3.60;99.90;;;2.81;100.00;97763.13;4952613;28;1576;-80
2023/03/02 09:35:55;;;;;;;;;;;3.70;99.90;;;2.59;100.00;97757.31;4957407;28;1566;-80
2023/03/02 09:38:22;;;;;;;;;;;3.60;99.90;;;2.97;100.00;97757.88;4978925;28;1343;-80
2023/03/02 09:40:52;;;;;;;;;;;3.80;99.90;;;3.05;100.00;97754.34;4972742;28;1598;-80
2023/03/02 09:43:34;;;;;;;;;;;3.90;99.90;;;3.11;100.00;97753.44;4971172;28;1650;-80
2023/03/02 09:46:10;;;;;;;;;;;4.00;99.90;;;2.93;100.00;97757.03;4972660;28;1805;-80
2023/03/02 09:48:52;;;;;;;;;;;4.00;99.90;;;3.17;100.00;97753.41;4974200;28;1986;-80
2023/03/02 09:51:26;;;;;;;;;;;4.10;99.90;;;3.26;100.00;97745.59;4972655;28;1463;-80
2023/03/02 09:53:57;;;;;;;;;;;4.20;99.90;;;3.37;100.00;97750.59;4975467;28;1392;-80
2023/03/02 09:56:24;;;;;;;;;;;4.30;99.90;;;3.42;100.00;97747.97;4976367;28;1599;-80
2023/03/02 09:58:57;;;;;;;;;;;4.40;99.90;;;3.49;100.00;97750.47;4978719;28;1752;-80
2023/03/02 10:01:53;;;;;;;;;;;4.40;99.90;;;3.54;100.00;97750.41;4980903;28;1474;-80
2023/03/02 10:04:37;;;;;;;;;;;4.50;99.90;;;3.64;100.00;97752.00;4979262;28;1518;-80
2023/03/02 10:07:15;;;;;;;;;;;4.50;99.90;;;3.73;100.00;97754.44;4980912;28;1962;-80
2023/03/02 10:09:43;;;;;;;;;;;4.60;99.90;;;3.88;100.00;97747.44;4981950;28;1582;-79
2023/03/02 10:12:38;;;;;;;;;;;4.70;99.90;;;3.93;100.00;97749.06;4967220;28;1393;-79
2023/03/02 10:15:27;;;;;;;;;;;4.80;99.90;;;3.95;100.00;97751.63;4980773;28;1638;-79
2023/03/02 10:18:10;;;;;;;;;;;4.90;99.90;;;4.38;100.00;97746.72;4976649;28;1287;-80
2023/03/02 10:20:47;;;;;;;;;;;5.10;99.90;;;4.35;100.00;97751.88;4978338;28;1507;-80
2023/03/02 10:23:29;;;;;;;;;;;5.20;99.90;;;4.48;100.00;97749.97;4980413;28;1443;-80
2023/03/02 10:26:16;;;;;;;;;;;5.40;99.90;;;4.62;100.00;97744.63;4976144;28;1464;-80
2023/03/02 10:28:50;;;;;;;;;;;5.40;99.90;;;4.47;100.00;97747.41;4964332;28;1966;-79
2023/03/02 10:31:29;;;;;;;;;;;5.50;99.90;;;4.65;100.00;97743.72;4987025;28;1704;-80
2023/03/02 10:33:57;;;;;;;;;;;5.60;99.90;;;4.66;100.00;97743.69;4985763;28;1509;-80
2023/03/02 10:36:29;;;;;;;;;;;5.60;99.90;;;4.80;100.00;97736.59;4962627;28;1784;-80
2023/03/02 10:38:59;;;;;;;;;;;5.70;99.90;;;4.80;100.00;97738.31;4956585;28;1778;-80
2023/03/02 10:41:33;;;;;;;;;;;5.80;99.90;;;4.78;100.00;97728.06;4977588;28;1496;-80
2023/03/02 10:44:06;;;;;;;;;;;5.80;99.90;;;4.91;100.00;97727.88;4974569;28;1703;-80
2023/03/02 10:46:41;;;;;;;;;;;5.80;99.90;;;4.77;100.00;97733.25;4971319;28;1942;-79
2023/03/02 10:49:26;;;;;;;;;;;5.70;99.90;;;5.01;100.00;97724.22;4971976;28;1501;-79
2023/03/02 10:52:02;;;;;;;;;;;5.90;99.90;;;5.30;100.00;97718.56;4957863;28;1655;-79
2023/03/02 10:54:32;;;;;;;;;;;6.00;99.90;;;5.33;100.00;97715.06;4978811;28;1436;-80
2023/03/02 10:57:01;;;;;;;;;;;6.20;99.90;;;5.26;100.00;97716.06;4973716;28;1523;-80
2023/03/02 10:59:44;;;;;;;;;;;6.20;99.90;;;5.41;100.00;97711.47;4975078;28;1785;-80
2023/03/02 11:02:23;;;;;;;;;;;6.20;99.90;;;5.48;100.00;97716.50;4975285;28;1627;-80
2023/03/02 11:04:55;;;;;;;;;;;6.40;99.90;;;5.52;100.00;97705.25;4973233;28;1476;-79
2023/03/02 11:07:26;;;;;;;;;;;6.50;99.90;;;5.53;100.00;97712.09;4974873;28;1987;-79
2023/03/02 11:09:55;;;;;;;;;;;6.40;99.90;;;5.62;100.00;97702.47;4974770;28;1575;-79
2023/03/02 11:12:25;;;;;;;;;;;6.50;99.90;;;5.77;100.00;97697.84;4972045;28;1395;-80
2023/03/02 11:15:07;;;;;;;;;;;;;;;5.84;100.00;97699.44;4974586;28;1482;-80
2023/03/02 11:17:36;;;;;;;;;;;6.70;99.90;;;5.93;100.00;97700.94;4975356;28;1567;-80
2023/03/02 11:20:04;;;;;;;;;;;6.80;99.90;;;5.85;100.00;97694.25;4977698;28;1474;-79
2023/03/02 11:22:37;;;;;;;;;;;6.80;99.90;;;6.11;100.00;97692.00;4974282;28;1786;-80
2023/03/02 11:25:07;;;;;;;;;;;6.90;99.90;;;6.27;100.00;97690.75;4956440;28;1797;-80
2023/03/02 11:27:35;;;;;;;;;;;7.10;99.90;;;6.38;100.00;97678.44;4976737;28;1907;-79
2023/03/02 11:30:10;;;;;;;;;;;7.30;99.90;;;6.54;100.00;97684.09;4972159;28;1451;-79
2023/03/02 11:32:48;;;;;;;;;;;7.40;99.90;;;6.66;100.00;97686.38;4974259;28;1610;-79
2023/03/02 11:35:28;;;;;;;;;;;7.60;99.90;;;6.63;100.00;97689.00;4977860;28;1410;-80
2023/03/02 11:38:20;;;;;;;;;;;7.50;99.90;;;6.82;100.00;97681.66;4964022;28;1381;-80